Ponca, Arkansas
Current Conditions -  °F | °C
As of 8:26 AM on Friday 19 Dec 2014 (Local Time) from KHRO Reporting Station
Moderate Fog Moderate Fog  
Wind Chill: -1°   Ceiling: 200
Heat Index:   Visibility: 0.25mi
Dew Point:   Wind: 7mph
Humidity: 100%   Direction: 110°ESE
Pressure: 30.23"   Gusts: NA
Location:  36.02°N, 93.37°W
Report Text: KHRO 191426Z AUTO 11006KT 1/4SM FG VV002 02/02 A3023 RMK AO2 T00220022
Loading
Personal Weather Stations






























Interactive Weather Map New forecast layout! Learn more

10-Day Weather Forecast

Advertisements
Track Severe Weather on mobile